This is the latest recevied weather packets stored in our database for station/object WMKA. If no packets are shown the sender has not sent any weather packets the latest 1 day(s).
| Time | Temp. | Humidity | Pressure | Rain* | Wind** | Luminosity | Snow |
|---|---|---|---|---|---|---|---|
| 1778051407 | 33.89° C | 59% | 1006 hPa | - | 1.34 m/s, 0° | - | - |
| 1778047800 | 33.89° C | 56% | 1007 hPa | - | 2.24 m/s, 160° | - | - |
| 1778044200 | 32.78° C | 59% | 1008 hPa | - | 2.24 m/s, 180° | - | - |
| 1778040602 | 31.67° C | 70% | 1009 hPa | - | 1.34 m/s, 230° | - | - |
| 1778037005 | 30.56° C | 66% | 1009 hPa | - | 1.79 m/s, 110° | - | - |
| 1778033990 | 30° C | 70% | 1009 hPa | - | 2.24 m/s, 80° | - | - |
| 1778033400 | 27.78° C | 83% | 1008 hPa | - | 1.34 m/s, 0° | - | - |
| 1778029801 | 27.78° C | 83% | 1008 hPa | - | 1.34 m/s, 0° | - | - |
| 1778026202 | 25.56° C | 94% | 1008 hPa | - | 0 m/s | - | - |
| 1778022600 | 25° C | 94% | 1007 hPa | - | 0.89 m/s, 0° | - | - |
| 1778019005 | 25.56° C | 94% | 1007 hPa | - | 0 m/s | - | - |
| 1778015400 | 25.56° C | 94% | 1007 hPa | - | 1.34 m/s, 0° | - | - |
| 1778014189 | 25.56° C | 88% | 1007 hPa | - | 0.89 m/s, 0° | - | - |
| 1778013589 | 23.33° C | 10% | - | - | 0 m/s | - | - |
| 1778011801 | 25.56° C | 88% | 1008 hPa | - | 1.34 m/s, 110° | - | - |
| 1778008200 | 25.56° C | 88% | 1008 hPa | - | 1.34 m/s, 110° | - | - |
| 1778004605 | 25.56° C | 88% | 1008 hPa | - | 0.45 m/s, 0° | - | - |
| 1778001589 | 26.67° C | 88% | 1009 hPa | - | 2.24 m/s, 190° | - | - |
| 1778000999 | 26.67° C | 88% | 1009 hPa | - | 1.34 m/s, 0° | - | - |
| 1777997400 | 26.67° C | 88% | 1009 hPa | - | 1.34 m/s, 0° | - | - |
| 1777994999 | 26.67° C | 88% | 1008 hPa | - | 0.89 m/s, 0° | - | - |
| 1777994416 | 25° C | 91% | 1010.7 hPa | - | 0.45 m/s, 225° | - | - |
| 1777993799 | 26.67° C | 88% | 1008 hPa | - | 0.89 m/s, 0° | - | - |
| 1777990199 | 26.67° C | 94% | 1007 hPa | - | 2.24 m/s, 190° | - | - |
| 1777986608 | 28.89° C | 83% | 1006 hPa | - | 1.79 m/s, 310° | - | - |
* Rain since midnight (hover to see other rain measurements)
** Current wind speed in m/s (hover to see current wind gust speed)